CBR weather

Canberra International Airport
Canberra, Australian Capital Territory, Australia

Public forecast

Using degrees Celsius for public forecast. Weather courtesy of forecast.io.

METAR (pilot weather report)

Retrieved 2018/05/21 18:30 UTC (0 seconds ago):

YSCB 211830Z 34007KT CAVOK 09/04 Q1019

TAF (pilot weather forecast)

Retrieved 2018/05/21 18:36 UTC (0 seconds ago):

TAF YSCB 211734Z 2118/2218 33012KT 9999 FEW045 FM220200 29013KT CAVOK BECMG 2212/2213 30003KT 9999 BKN015 PROB30 2118/2123 3000 BR SCT001 PROB30 2214/2218 0500 FG BKN001